Time,TemperatureF,DewpointF,PressureIn,WindDirection,WindDirectionDegrees,WindSpeedMPH,WindSpeedGustMPH,Humidity,HourlyPrecipIn,Conditions,Clouds,dailyrainin,SolarRadiationWatts/m^2,SoftwareType,DateUTC
2013-02-24 00:04:00,33.4,29.9,30.38,ESE,109,0.0,0.0,87,0.00,CLR,,0.00,0.0,WeatherDisplay:10.37,2013-02-24 00:04:00,
2013-02-24 00:10:00,33.4,29.9,30.39,ESE,110,0.0,0.0,87,0.00,CLR,,0.00,0.0,WeatherDisplay:10.37,2013-02-24 00:10:00,
2013-02-24 00:15:00,33.4,29.9,30.39,ESE,109,0.0,0.0,87,0.00,CLR,,0.00,0.0,WeatherDisplay:10.37,2013-02-24 00:15:00,
2013-02-24 00:20:00,33.4,29.9,30.39,ESE,110,0.0,0.0,87,0.00,CLR,,0.00,0.0,WeatherDisplay:10.37,2013-02-24 00:20:00,
2013-02-24 00:25:00,33.3,29.8,30.39,ESE,109,0.0,0.0,87,0.00,CLR,,0.00,0.0,WeatherDisplay:10.37,2013-02-24 00:25:00,
2013-02-24 00:30:00,33.3,29.8,30.39,ESE,110,0.0,0.0,87,0.00,CLR,,0.00,0.0,WeatherDisplay:10.37,2013-02-24 00:30:00,
2013-02-24 00:35:00,33.3,29.8,30.39,ESE,109,0.0,0.0,87,0.00,CLR,,0.00,0.0,WeatherDisplay:10.37,2013-02-24 00:35:00,
2013-02-24 00:40:00,33.3,29.8,30.39,ESE,109,3.0,3.0,87,0.00,CLR,,0.00,0.0,WeatherDisplay:10.37,2013-02-24 00:40:00,
2013-02-24 00:45:00,33.4,30.2,30.39,ESE,110,0.0,0.0,88,0.00,CLR,,0.00,0.0,WeatherDisplay:10.37,2013-02-24 00:45:00,
2013-02-24 00:50:00,33.4,30.2,30.39,ESE,110,0.0,0.0,88,0.00,CLR,,0.00,0.0,WeatherDisplay:10.37,2013-02-24 00:50:00,
2013-02-24 00:55:00,33.5,30.3,30.39,ESE,109,2.3,2.3,88,0.00,CLR,,0.00,0.0,WeatherDisplay:10.37,2013-02-24 00:55:00,
2013-02-24 01:00:00,33.5,30.3,30.38,ESE,121,6.9,6.9,88,0.00,CLR,,0.00,0.0,WeatherDisplay:10.37,2013-02-24 01:00:00,
2013-02-24 01:05:00,33.6,30.4,30.39,East,80,1.1,0.0,88,0.00,CLR,,0.00,0.0,WeatherDisplay:10.37,2013-02-24 01:05:00,
2013-02-24 01:10:00,33.8,30.6,30.39,East,98,3.0,3.0,88,0.00,CLR,,0.00,0.0,WeatherDisplay:10.37,2013-02-24 01:10:00,
2013-02-24 01:15:00,33.9,30.7,30.38,ESE,108,16.1,16.1,88,0.00,CLR,,0.00,0.0,WeatherDisplay:10.37,2013-02-24 01:15:00,
2013-02-24 01:20:00,34.1,30.9,30.38,ESE,114,2.3,2.3,88,0.00,CLR,,0.00,0.0,WeatherDisplay:10.37,2013-02-24 01:20:00,
2013-02-24 01:25:00,34.2,31.0,30.38,ESE,103,2.3,2.3,88,0.00,CLR,,0.00,0.0,WeatherDisplay:10.37,2013-02-24 01:25:00,
2013-02-24 01:30:00,34.3,31.1,30.38,ESE,105,1.1,1.1,88,0.00,CLR,,0.00,0.0,WeatherDisplay:10.37,2013-02-24 01:30:00,
2013-02-24 01:35:00,34.3,31.1,30.38,ESE,105,2.3,2.3,88,0.00,CLR,,0.00,0.0,WeatherDisplay:10.37,2013-02-24 01:35:00,
2013-02-24 01:40:00,34.4,31.2,30.38,ESE,105,1.1,1.1,88,0.00,CLR,,0.00,0.0,WeatherDisplay:10.37,2013-02-24 01:40:00,
2013-02-24 01:45:00,34.4,30.9,30.39,ESE,104,0.0,0.0,87,0.00,CLR,,0.00,0.0,WeatherDisplay:10.37,2013-02-24 01:45:00,
2013-02-24 01:50:00,34.3,30.8,30.39,ESE,105,0.0,0.0,87,0.00,CLR,,0.00,0.0,WeatherDisplay:10.37,2013-02-24 01:50:00,
2013-02-24 01:55:00,34.3,30.8,30.39,ESE,105,0.0,0.0,87,0.00,CLR,,0.00,0.0,WeatherDisplay:10.37,2013-02-24 01:55:00,
2013-02-24 02:00:00,34.2,30.7,30.39,ESE,105,0.0,0.0,87,0.00,CLR,,0.00,0.0,WeatherDisplay:10.37,2013-02-24 02:00:00,
2013-02-24 02:05:00,34.1,30.6,30.39,ESE,104,0.0,0.0,87,0.00,CLR,,0.00,0.0,WeatherDisplay:10.37,2013-02-24 02:05:00,
2013-02-24 02:10:00,34.0,30.3,30.39,ESE,103,0.0,0.0,86,0.00,CLR,,0.00,0.0,WeatherDisplay:10.37,2013-02-24 02:10:00,
2013-02-24 02:15:00,33.9,30.2,30.39,ESE,105,0.0,0.0,86,0.00,CLR,,0.00,0.0,WeatherDisplay:10.37,2013-02-24 02:15:00,
2013-02-24 02:20:00,33.8,30.1,30.39,ESE,106,0.0,0.0,86,0.00,CLR,,0.00,0.0,WeatherDisplay:10.37,2013-02-24 02:20:00,
2013-02-24 02:25:00,33.7,30.0,30.39,ESE,105,0.0,0.0,86,0.00,CLR,,0.00,0.0,WeatherDisplay:10.37,2013-02-24 02:25:00,
2013-02-24 02:30:00,33.6,30.1,30.38,ESE,105,0.0,0.0,87,0.00,CLR,,0.00,0.0,WeatherDisplay:10.37,2013-02-24 02:30:00,
2013-02-24 02:35:00,33.5,29.8,30.38,ESE,105,0.0,0.0,86,0.00,CLR,,0.00,0.0,WeatherDisplay:10.37,2013-02-24 02:35:00,
2013-02-24 02:40:00,33.4,29.9,30.39,ESE,105,0.0,0.0,87,0.00,CLR,,0.00,0.0,WeatherDisplay:10.37,2013-02-24 02:40:00,
2013-02-24 02:45:00,33.3,29.8,30.39,ESE,105,0.0,0.0,87,0.00,CLR,,0.00,0.0,WeatherDisplay:10.37,2013-02-24 02:45:00,
2013-02-24 02:50:00,33.3,29.8,30.39,ESE,104,0.0,0.0,87,0.00,CLR,,0.00,0.0,WeatherDisplay:10.37,2013-02-24 02:50:00,
2013-02-24 02:55:00,33.2,29.8,30.38,ESE,105,0.0,0.0,87,0.00,CLR,,0.00,0.0,WeatherDisplay:10.37,2013-02-24 02:55:00,
2013-02-24 03:00:00,33.2,29.8,30.38,ESE,105,0.0,0.0,87,0.00,CLR,,0.00,0.0,WeatherDisplay:10.37,2013-02-24 03:00:00,
2013-02-24 03:05:00,33.1,29.7,30.38,ESE,105,0.0,0.0,87,0.00,CLR,,0.00,0.0,WeatherDisplay:10.37,2013-02-24 03:05:00,
2013-02-24 03:10:00,33.0,29.6,30.39,ESE,104,0.0,0.0,87,0.00,CLR,,0.00,0.0,WeatherDisplay:10.37,2013-02-24 03:10:00,
2013-02-24 03:15:00,32.8,29.4,30.39,ESE,105,0.0,0.0,87,0.00,CLR,,0.00,0.0,WeatherDisplay:10.37,2013-02-24 03:15:00,
2013-02-24 03:20:00,32.7,29.3,30.39,ESE,105,0.0,0.0,87,0.00,CLR,,0.00,0.0,WeatherDisplay:10.37,2013-02-24 03:20:00,
2013-02-24 03:25:00,32.7,29.3,30.38,ESE,105,0.0,0.0,87,0.00,CLR,,0.00,0.0,WeatherDisplay:10.37,2013-02-24 03:25:00,
2013-02-24 03:30:00,32.7,29.3,30.38,ESE,105,0.0,0.0,87,0.00,CLR,,0.00,0.0,WeatherDisplay:10.37,2013-02-24 03:30:00,
2013-02-24 03:35:00,32.7,29.3,30.38,ESE,105,0.0,0.0,87,0.00,CLR,,0.00,0.0,WeatherDisplay:10.37,2013-02-24 03:35:00,
2013-02-24 03:40:00,32.6,29.2,30.39,ESE,105,0.0,0.0,87,0.00,CLR,,0.00,0.0,WeatherDisplay:10.37,2013-02-24 03:40:00,
2013-02-24 03:45:00,32.5,29.1,30.38,ESE,105,0.0,0.0,87,0.00,CLR,,0.00,0.0,WeatherDisplay:10.37,2013-02-24 03:45:00,
2013-02-24 03:50:00,32.5,29.3,30.38,ESE,105,2.3,2.3,88,0.00,CLR,,0.00,0.0,WeatherDisplay:10.37,2013-02-24 03:50:00,
2013-02-24 03:55:00,32.5,29.3,30.38,ESE,103,0.0,0.0,88,0.00,CLR,,0.00,0.0,WeatherDisplay:10.37,2013-02-24 03:55:00,
2013-02-24 04:00:00,32.5,29.3,30.38,ESE,105,0.0,0.0,88,0.00,CLR,,0.00,0.0,WeatherDisplay:10.37,2013-02-24 04:00:00,
2013-02-24 04:05:00,32.5,29.3,30.38,ESE,105,1.1,0.0,88,0.00,CLR,,0.00,0.0,WeatherDisplay:10.37,2013-02-24 04:05:00,
2013-02-24 04:10:00,32.5,29.3,30.39,ESE,106,0.0,0.0,88,0.00,CLR,,0.00,0.0,WeatherDisplay:10.37,2013-02-24 04:10:00,
2013-02-24 04:15:00,32.6,29.4,30.39,ESE,105,0.0,0.0,88,0.00,CLR,,0.00,0.0,WeatherDisplay:10.37,2013-02-24 04:15:00,
2013-02-24 04:20:00,32.6,29.4,30.39,ESE,106,0.0,0.0,88,0.00,CLR,,0.00,0.0,WeatherDisplay:10.37,2013-02-24 04:20:00,
2013-02-24 04:25:00,32.6,29.4,30.38,ESE,105,0.0,0.0,88,0.00,CLR,,0.00,0.0,WeatherDisplay:10.37,2013-02-24 04:25:00,
2013-02-24 04:30:00,32.6,29.4,30.38,ESE,106,0.0,0.0,88,0.00,CLR,,0.00,0.0,WeatherDisplay:10.37,2013-02-24 04:30:00,
2013-02-24 04:36:00,32.7,29.5,30.39,ESE,105,0.0,0.0,88,0.00,CLR,,0.00,0.0,WeatherDisplay:10.37,2013-02-24 04:36:00,
2013-02-24 04:41:00,32.7,29.8,30.39,ESE,106,0.0,0.0,89,0.00,CLR,,0.00,0.0,WeatherDisplay:10.37,2013-02-24 04:41:00,
2013-02-24 04:46:00,32.7,29.8,30.38,ESE,105,0.0,0.0,89,0.00,CLR,,0.00,0.0,WeatherDisplay:10.37,2013-02-24 04:46:00,
2013-02-24 04:51:00,32.7,29.8,30.38,ESE,106,0.0,0.0,89,0.00,CLR,,0.00,0.0,WeatherDisplay:10.37,2013-02-24 04:51:00,
2013-02-24 04:56:00,32.7,29.8,30.38,ESE,105,1.1,1.1,89,0.00,CLR,,0.00,0.0,WeatherDisplay:10.37,2013-02-24 04:56:00,
2013-02-24 05:00:00,32.7,29.8,30.38,ESE,105,0.0,0.0,89,0.00,CLR,,0.00,0.0,WeatherDisplay:10.37,2013-02-24 05:00:00,
2013-02-24 05:05:00,32.7,29.8,30.39,ESE,105,0.0,0.0,89,0.00,CLR,,0.00,0.0,WeatherDisplay:10.37,2013-02-24 05:05:00,
2013-02-24 05:10:00,32.7,29.8,30.39,East,90,1.1,0.0,89,0.00,CLR,,0.00,0.0,WeatherDisplay:10.37,2013-02-24 05:10:00,
2013-02-24 05:15:00,32.7,29.8,30.39,East,90,1.1,1.1,89,0.00,CLR,,0.00,0.0,WeatherDisplay:10.37,2013-02-24 05:15:00,
2013-02-24 05:20:00,32.7,29.8,30.39,ENE,67,0.0,0.0,89,0.00,CLR,,0.00,0.0,WeatherDisplay:10.37,2013-02-24 05:20:00,
2013-02-24 05:25:00,32.7,29.8,30.39,ENE,65,1.0,1.0,89,0.00,CLR,,0.00,0.0,WeatherDisplay:10.37,2013-02-24 05:25:00,
2013-02-24 05:30:00,32.7,29.8,30.39,ENE,64,1.0,1.0,89,0.00,CLR,,0.00,0.0,WeatherDisplay:10.37,2013-02-24 05:30:00,
2013-02-24 05:35:00,32.7,29.8,30.39,ENE,65,0.0,0.0,89,0.00,CLR,,0.00,0.0,WeatherDisplay:10.37,2013-02-24 05:35:00,
2013-02-24 05:40:00,32.7,29.5,30.39,ENE,65,0.0,0.0,88,0.00,CLR,,0.00,0.0,WeatherDisplay:10.37,2013-02-24 05:40:00,
2013-02-24 05:45:00,32.7,29.5,30.39,ENE,65,0.0,0.0,88,0.00,CLR,,0.00,0.0,WeatherDisplay:10.37,2013-02-24 05:45:00,
2013-02-24 05:50:00,32.7,29.5,30.39,ENE,66,0.0,0.0,88,0.00,CLR,,0.00,0.0,WeatherDisplay:10.37,2013-02-24 05:50:00,
2013-02-24 05:55:00,32.7,29.5,30.39,ENE,64,0.0,0.0,88,0.00,CLR,,0.00,0.0,WeatherDisplay:10.37,2013-02-24 05:55:00,
2013-02-24 06:00:00,32.6,29.4,30.39,ENE,65,0.0,0.0,88,0.00,CLR,,0.00,0.0,WeatherDisplay:10.37,2013-02-24 06:00:00,
2013-02-24 06:05:00,32.6,29.4,30.39,ENE,65,0.0,0.0,88,0.00,CLR,,0.00,0.0,WeatherDisplay:10.37,2013-02-24 06:05:00,
2013-02-24 06:10:00,32.5,29.3,30.39,ENE,65,0.0,0.0,88,0.00,CLR,,0.00,0.0,WeatherDisplay:10.37,2013-02-24 06:10:00,
2013-02-24 06:15:00,32.5,29.3,30.39,ENE,65,0.0,0.0,88,0.00,CLR,,0.00,0.0,WeatherDisplay:10.37,2013-02-24 06:15:00,
2013-02-24 06:20:00,32.5,29.3,30.39,ENE,65,0.0,0.0,88,0.00,CLR,,0.00,0.0,WeatherDisplay:10.37,2013-02-24 06:20:00,
2013-02-24 06:25:00,32.5,29.3,30.39,ENE,65,0.0,0.0,88,0.00,CLR,,0.00,0.0,WeatherDisplay:10.37,2013-02-24 06:25:00,
2013-02-24 06:30:00,32.6,29.4,30.39,ENE,65,0.0,0.0,88,0.00,CLR,,0.00,0.0,WeatherDisplay:10.37,2013-02-24 06:30:00,
2013-02-24 06:35:00,32.6,29.4,30.39,ENE,65,0.0,0.0,88,0.00,CLR,,0.00,0.0,WeatherDisplay:10.37,2013-02-24 06:35:00,
2013-02-24 06:40:00,32.6,29.4,30.39,ENE,65,0.0,0.0,88,0.00,CLR,,0.00,0.0,WeatherDisplay:10.37,2013-02-24 06:40:00,
2013-02-24 06:45:00,32.7,29.8,30.39,ENE,65,0.0,0.0,89,0.00,CLR,,0.00,0.0,WeatherDisplay:10.37,2013-02-24 06:45:00,
2013-02-24 06:50:00,32.7,29.8,30.39,ENE,64,0.0,0.0,89,0.00,CLR,,0.00,0.0,WeatherDisplay:10.37,2013-02-24 06:50:00,
2013-02-24 06:55:00,32.7,29.8,30.39,ENE,65,0.0,0.0,89,0.00,CLR,,0.00,0.0,WeatherDisplay:10.37,2013-02-24 06:55:00,
2013-02-24 07:00:00,32.7,29.8,30.40,ENE,65,0.0,0.0,89,0.00,OVC,,0.00,0.0,WeatherDisplay:10.37,2013-02-24 07:00:00,
2013-02-24 07:05:00,32.7,29.8,30.40,ENE,65,0.0,0.0,89,0.00,OVC,,0.00,0.0,WeatherDisplay:10.37,2013-02-24 07:05:00,
2013-02-24 07:10:00,32.7,29.8,30.40,NW,315,0.0,0.0,89,0.00,OVC,,0.00,0.0,WeatherDisplay:10.37,2013-02-24 07:10:00,
2013-02-24 07:15:00,32.7,29.8,30.40,NW,315,0.0,0.0,89,0.00,OVC,,0.00,0.0,WeatherDisplay:10.37,2013-02-24 07:15:00,
2013-02-24 07:20:00,32.7,29.5,30.40,NW,315,0.0,0.0,88,0.00,OVC,,0.00,0.0,WeatherDisplay:10.37,2013-02-24 07:20:00,
2013-02-24 07:25:00,32.7,29.5,30.40,NW,315,0.0,0.0,88,0.00,OVC,,0.00,5.0,WeatherDisplay:10.37,2013-02-24 07:25:00,
2013-02-24 07:30:00,32.7,29.5,30.40,NW,315,0.0,0.0,88,0.00,CLR,,0.00,9.0,WeatherDisplay:10.37,2013-02-24 07:30:00,
2013-02-24 07:35:00,32.7,29.5,30.40,NW,315,0.0,0.0,88,0.00,CLR,,0.00,12.0,WeatherDisplay:10.37,2013-02-24 07:35:00,
2013-02-24 07:40:00,32.7,29.5,30.40,NW,316,0.0,0.0,88,0.00,CLR,,0.00,18.0,WeatherDisplay:10.37,2013-02-24 07:40:00,
2013-02-24 07:45:00,32.7,29.5,30.40,NW,315,0.0,0.0,88,0.00,FEW,,0.00,21.0,WeatherDisplay:10.37,2013-02-24 07:45:00,
2013-02-24 07:50:00,32.7,29.5,30.40,NW,316,0.0,0.0,88,0.00,SCT,,0.00,19.0,WeatherDisplay:10.37,2013-02-24 07:50:00,
2013-02-24 07:55:00,32.7,29.5,30.40,NW,315,0.0,0.0,88,0.00,SCT,,0.00,26.0,WeatherDisplay:10.37,2013-02-24 07:55:00,
2013-02-24 08:00:00,32.7,29.5,30.40,NW,315,0.0,0.0,88,0.00,FEW,,0.00,42.0,WeatherDisplay:10.37,2013-02-24 08:00:00,
2013-02-24 08:05:00,32.7,29.5,30.41,NW,317,0.0,0.0,88,0.00,FEW,,0.00,42.0,WeatherDisplay:10.37,2013-02-24 08:05:00,
2013-02-24 08:10:00,32.6,29.4,30.41,NW,315,0.0,0.0,88,0.00,SCT,,0.00,42.0,WeatherDisplay:10.37,2013-02-24 08:10:00,
2013-02-24 08:15:00,32.6,29.4,30.41,NW,315,0.0,0.5,88,0.00,SCT,,0.00,35.0,WeatherDisplay:10.37,2013-02-24 08:15:00,
2013-02-24 08:20:00,32.6,29.4,30.41,NW,315,0.0,0.0,88,0.00,SCT,,0.00,32.0,WeatherDisplay:10.37,2013-02-24 08:20:00,
2013-02-24 08:25:00,32.7,29.8,30.41,NW,316,0.0,0.0,89,0.00,BKN,,0.00,16.0,WeatherDisplay:10.37,2013-02-24 08:25:00,
2013-02-24 08:31:00,32.7,29.8,30.41,NW,315,0.0,0.0,89,0.00,BKN,,0.00,16.0,WeatherDisplay:10.37,2013-02-24 08:31:00,
2013-02-24 08:36:00,32.7,29.8,30.41,NW,315,0.0,0.1,89,0.00,BKN,,0.00,44.0,WeatherDisplay:10.37,2013-02-24 08:36:00,
2013-02-24 08:41:00,32.7,29.8,30.41,NW,316,0.0,0.0,89,0.00,BKN,,0.00,46.0,WeatherDisplay:10.37,2013-02-24 08:41:00,
2013-02-24 08:46:00,32.8,29.9,30.41,NW,316,0.0,0.0,89,0.00,BKN,,0.00,47.0,WeatherDisplay:10.37,2013-02-24 08:46:00,
2013-02-24 08:51:00,33.0,30.1,30.41,NW,315,0.0,0.0,89,0.00,BKN,,0.00,33.0,WeatherDisplay:10.37,2013-02-24 08:51:00,
2013-02-24 08:56:00,33.1,30.2,30.42,NW,316,0.0,0.0,89,0.00,BKN,,0.00,47.0,WeatherDisplay:10.37,2013-02-24 08:56:00,
2013-02-24 09:01:00,33.3,30.4,30.42,NW,317,0.0,0.0,89,0.00,BKN,,0.00,33.0,WeatherDisplay:10.37,2013-02-24 09:01:00,
2013-02-24 09:06:00,33.5,30.6,30.42,NW,317,0.0,0.0,89,0.00,BKN,,0.00,26.0,WeatherDisplay:10.37,2013-02-24 09:06:00,
2013-02-24 09:11:00,33.6,30.7,30.42,NW,317,0.0,0.0,89,0.00,BKN,,0.00,19.0,WeatherDisplay:10.37,2013-02-24 09:11:00,
2013-02-24 09:16:00,33.7,30.5,30.43,NW,317,1.1,1.1,88,0.00,BKN,,0.00,21.0,WeatherDisplay:10.37,2013-02-24 09:16:00,
2013-02-24 09:21:00,33.9,30.7,30.43,NW,316,0.0,0.0,88,0.00,BKN,,0.00,35.0,WeatherDisplay:10.37,2013-02-24 09:21:00,
2013-02-24 09:26:00,34.0,30.8,30.43,NW,317,0.0,0.0,88,0.00,BKN,,0.00,65.0,WeatherDisplay:10.37,2013-02-24 09:26:00,
2013-02-24 09:31:00,34.1,30.9,30.43,NW,315,0.0,0.0,88,0.00,BKN,,0.00,69.0,WeatherDisplay:10.37,2013-02-24 09:31:00,
2013-02-24 09:36:00,34.2,30.7,30.43,NW,317,2.0,2.0,87,0.00,BKN,,0.00,107.0,WeatherDisplay:10.37,2013-02-24 09:36:00,
2013-02-24 09:41:00,34.4,30.9,30.43,NW,317,0.0,0.0,87,0.00,BKN,,0.00,104.0,WeatherDisplay:10.37,2013-02-24 09:41:00,
2013-02-24 09:46:00,34.6,31.1,30.43,NW,315,2.0,2.0,87,0.00,SCT,,0.00,174.0,WeatherDisplay:10.37,2013-02-24 09:46:00,
2013-02-24 09:51:00,34.9,31.1,30.43,NW,315,0.0,0.0,86,0.00,CLR,,0.00,148.0,WeatherDisplay:10.37,2013-02-24 09:51:00,
2013-02-24 09:56:00,35.2,31.1,30.43,NW,315,1.1,1.1,85,0.00,FEW,,0.00,139.0,WeatherDisplay:10.37,2013-02-24 09:56:00,
2013-02-24 10:01:00,35.5,31.4,30.43,NW,315,2.0,2.0,85,0.00,SCT,,0.00,171.0,WeatherDisplay:10.37,2013-02-24 10:01:00,
2013-02-24 10:06:00,35.9,31.8,30.44,NW,314,0.0,0.0,85,0.00,FEW,,0.00,241.0,WeatherDisplay:10.37,2013-02-24 10:06:00,
2013-02-24 10:11:00,36.2,31.5,30.43,NW,315,0.0,0.0,83,0.00,FEW,,0.00,163.0,WeatherDisplay:10.37,2013-02-24 10:11:00,
2013-02-24 10:16:00,36.5,31.8,30.44,NW,315,1.1,1.1,83,0.00,FEW,,0.00,218.0,WeatherDisplay:10.37,2013-02-24 10:16:00,
2013-02-24 10:21:00,36.7,32.0,30.43,NW,315,1.1,0.0,83,0.00,FEW,,0.00,151.0,WeatherDisplay:10.37,2013-02-24 10:21:00,
2013-02-24 10:26:00,37.0,31.7,30.43,NW,315,2.3,2.3,81,0.00,SCT,,0.00,135.0,WeatherDisplay:10.37,2013-02-24 10:26:00,
2013-02-24 10:31:00,37.2,31.6,30.44,NW,313,2.3,2.3,80,0.00,SCT,,0.00,105.0,WeatherDisplay:10.37,2013-02-24 10:31:00,
2013-02-24 10:36:00,37.4,32.1,30.44,NW,314,1.0,0.0,81,0.00,BKN,,0.00,127.0,WeatherDisplay:10.37,2013-02-24 10:36:00,
2013-02-24 10:41:00,37.6,32.0,30.44,WNW,292,3.0,3.0,80,0.00,BKN,,0.00,113.0,WeatherDisplay:10.37,2013-02-24 10:41:00,
2013-02-24 10:46:00,37.8,32.2,30.44,WNW,283,2.3,2.3,80,0.00,BKN,,0.00,104.0,WeatherDisplay:10.37,2013-02-24 10:46:00,
2013-02-24 10:51:00,38.0,32.1,30.44,WNW,283,1.1,1.1,79,0.00,BKN,,0.00,77.0,WeatherDisplay:10.37,2013-02-24 10:51:00,
2013-02-24 10:56:00,38.0,32.1,30.44,West,281,0.0,0.0,79,0.00,BKN,,0.00,88.0,WeatherDisplay:10.37,2013-02-24 10:56:00,
2013-02-24 11:01:00,38.1,32.2,30.44,WNW,282,0.0,0.0,79,0.00,BKN,,0.00,62.0,WeatherDisplay:10.37,2013-02-24 11:01:00,
2013-02-24 11:06:00,38.1,32.2,30.44,WNW,282,0.0,0.0,79,0.00,BKN,,0.00,67.0,WeatherDisplay:10.37,2013-02-24 11:06:00,
2013-02-24 11:11:00,38.2,32.3,30.44,WNW,283,0.0,0.0,79,0.00,BKN,,0.00,81.0,WeatherDisplay:10.37,2013-02-24 11:11:00,
2013-02-24 11:16:00,38.3,32.4,30.44,WNW,283,1.1,1.1,79,0.00,BKN,,0.00,81.0,WeatherDisplay:10.37,2013-02-24 11:16:00,
2013-02-24 11:21:00,38.3,32.0,30.44,WNW,283,1.0,1.0,78,0.00,BKN,,0.00,84.0,WeatherDisplay:10.37,2013-02-24 11:21:00,
2013-02-24 11:26:00,38.3,32.0,30.44,WNW,282,1.1,0.0,78,0.00,BKN,,0.00,77.0,WeatherDisplay:10.37,2013-02-24 11:26:00,
2013-02-24 11:31:00,38.3,32.0,30.44,WNW,283,0.0,0.0,78,0.00,BKN,,0.00,58.0,WeatherDisplay:10.37,2013-02-24 11:31:00,
2013-02-24 11:36:00,38.4,32.1,30.44,WNW,283,0.0,0.0,78,0.00,BKN,,0.00,60.0,WeatherDisplay:10.37,2013-02-24 11:36:00,
2013-02-24 11:41:00,38.4,32.1,30.44,WNW,282,0.0,0.0,78,0.00,BKN,,0.00,53.0,WeatherDisplay:10.37,2013-02-24 11:41:00,
2013-02-24 11:46:00,38.4,32.1,30.44,WNW,283,0.0,0.0,78,0.00,BKN,,0.00,56.0,WeatherDisplay:10.37,2013-02-24 11:46:00,
2013-02-24 11:51:00,38.4,32.5,30.44,WNW,283,0.0,0.0,79,0.00,BKN,,0.00,44.0,WeatherDisplay:10.37,2013-02-24 11:51:00,
2013-02-24 11:56:00,38.4,32.1,30.44,WNW,284,0.0,0.0,78,0.00,BKN,,0.00,56.0,WeatherDisplay:10.37,2013-02-24 11:56:00,
2013-02-24 12:01:00,38.4,32.1,30.44,WNW,283,0.0,0.0,78,0.00,BKN,,0.00,67.0,WeatherDisplay:10.37,2013-02-24 12:01:00,
2013-02-24 12:06:00,38.3,31.7,30.43,West,281,2.3,2.3,77,0.00,BKN,,0.00,88.0,WeatherDisplay:10.37,2013-02-24 12:06:00,
2013-02-24 12:11:00,38.3,32.0,30.44,West,278,4.0,4.0,78,0.00,BKN,,0.00,88.0,WeatherDisplay:10.37,2013-02-24 12:11:00,
2013-02-24 12:16:00,38.3,32.0,30.44,West,277,3.5,3.5,78,0.00,BKN,,0.00,69.0,WeatherDisplay:10.37,2013-02-24 12:16:00,
2013-02-24 12:21:00,38.4,32.1,30.43,West,277,2.3,2.3,78,0.00,BKN,,0.00,83.0,WeatherDisplay:10.37,2013-02-24 12:21:00,
2013-02-24 12:26:00,38.4,32.1,30.43,West,276,0.0,0.0,78,0.00,BKN,,0.00,72.0,WeatherDisplay:10.37,2013-02-24 12:26:00,
2013-02-24 12:31:00,38.5,31.9,30.43,West,277,0.0,0.0,77,0.00,BKN,,0.00,65.0,WeatherDisplay:10.37,2013-02-24 12:31:00,
2013-02-24 12:37:00,38.5,31.9,30.43,West,277,0.0,0.0,77,0.00,BKN,,0.00,79.0,WeatherDisplay:10.37,2013-02-24 12:37:00,
2013-02-24 12:42:00,38.6,32.3,30.43,West,269,3.0,3.0,78,0.00,BKN,,0.00,72.0,WeatherDisplay:10.37,2013-02-24 12:42:00,
2013-02-24 12:47:00,38.7,32.4,30.43,SSE,166,3.5,3.5,78,0.00,BKN,,0.00,88.0,WeatherDisplay:10.37,2013-02-24 12:47:00,
2013-02-24 12:52:00,38.8,32.2,30.43,SSE,155,2.3,2.3,77,0.00,BKN,,0.00,88.0,WeatherDisplay:10.37,2013-02-24 12:52:00,
2013-02-24 12:57:00,38.8,32.2,30.42,SSE,155,2.3,2.3,77,0.00,BKN,,0.00,79.0,WeatherDisplay:10.37,2013-02-24 12:57:00,
2013-02-24 13:02:00,38.9,32.6,30.42,SSE,155,3.5,3.5,78,0.00,BKN,,0.00,84.0,WeatherDisplay:10.37,2013-02-24 13:02:00,
2013-02-24 13:07:00,39.0,32.7,30.42,SSE,155,0.0,0.0,78,0.00,BKN,,0.00,88.0,WeatherDisplay:10.37,2013-02-24 13:07:00,
2013-02-24 13:12:00,39.0,32.7,30.42,SSE,155,1.1,1.1,78,0.00,BKN,,0.00,88.0,WeatherDisplay:10.37,2013-02-24 13:12:00,
2013-02-24 13:17:00,39.1,32.8,30.42,SSE,157,0.0,0.0,78,0.00,BKN,,0.00,102.0,WeatherDisplay:10.37,2013-02-24 13:17:00,
2013-02-24 13:22:00,39.2,32.9,30.42,SSE,157,0.0,0.0,78,0.00,BKN,,0.00,141.0,WeatherDisplay:10.37,2013-02-24 13:22:00,
2013-02-24 13:27:00,39.4,32.8,30.42,SSE,157,0.0,0.0,77,0.00,BKN,,0.00,186.0,WeatherDisplay:10.37,2013-02-24 13:27:00,
2013-02-24 13:32:00,39.5,32.6,30.42,SSE,156,0.0,0.0,76,0.00,SCT,,0.00,355.0,WeatherDisplay:10.37,2013-02-24 13:32:00,
2013-02-24 13:37:00,39.8,32.8,30.42,NNW,333,3.5,3.5,76,0.00,CLR,,0.00,374.0,WeatherDisplay:10.37,2013-02-24 13:37:00,
2013-02-24 13:42:00,40.2,33.2,30.42,WNW,295,3.5,3.5,76,0.00,CLR,,0.00,482.0,WeatherDisplay:10.37,2013-02-24 13:42:00,
2013-02-24 13:47:00,40.6,33.0,30.42,WNW,291,3.5,3.5,74,0.00,CLR,,0.00,448.0,WeatherDisplay:10.37,2013-02-24 13:47:00,
2013-02-24 13:52:00,41.0,33.3,30.42,WNW,292,1.1,1.1,74,0.00,CLR,,0.00,148.0,WeatherDisplay:10.37,2013-02-24 13:52:00,
2013-02-24 13:57:00,41.3,33.3,30.42,WNW,294,3.0,3.0,73,0.00,FEW,,0.00,149.0,WeatherDisplay:10.37,2013-02-24 13:57:00,
2013-02-24 14:02:00,41.5,33.1,30.42,WNW,295,3.5,3.5,72,0.00,SCT,,0.00,141.0,WeatherDisplay:10.37,2013-02-24 14:02:00,
2013-02-24 14:07:00,41.6,33.2,30.42,WNW,295,2.3,2.3,72,0.00,SCT,,0.00,439.0,WeatherDisplay:10.37,2013-02-24 14:07:00,
2013-02-24 14:12:00,41.8,33.4,30.42,WNW,295,0.0,0.0,72,0.00,FEW,,0.00,156.0,WeatherDisplay:10.37,2013-02-24 14:12:00,
2013-02-24 14:17:00,41.9,33.5,30.42,WNW,285,0.0,0.0,72,0.00,SCT,,0.00,116.0,WeatherDisplay:10.37,2013-02-24 14:17:00,
2013-02-24 14:22:00,42.0,32.9,30.41,SW,233,3.5,3.5,70,0.00,BKN,,0.00,142.0,WeatherDisplay:10.37,2013-02-24 14:22:00,
2013-02-24 14:27:00,42.0,33.3,30.41,WSW,237,1.1,1.1,71,0.00,FEW,,0.00,410.0,WeatherDisplay:10.37,2013-02-24 14:27:00,
2013-02-24 14:32:00,42.1,33.0,30.41,WNW,299,3.5,3.5,70,0.00,CLR,,0.00,374.0,WeatherDisplay:10.37,2013-02-24 14:32:00,
2013-02-24 14:37:00,42.2,33.5,30.41,NW,306,3.5,3.5,71,0.00,CLR,,0.00,417.0,WeatherDisplay:10.37,2013-02-24 14:37:00,
2013-02-24 14:42:00,42.3,33.2,30.40,NW,306,0.0,0.0,70,0.00,CLR,,0.00,181.0,WeatherDisplay:10.37,2013-02-24 14:42:00,
2013-02-24 14:47:00,42.5,33.8,30.41,NW,306,0.0,0.0,71,0.00,CLR,,0.00,153.0,WeatherDisplay:10.37,2013-02-24 14:47:00,
2013-02-24 14:52:00,42.7,33.2,30.40,NW,306,0.0,0.0,69,0.00,SCT,,0.00,70.0,WeatherDisplay:10.37,2013-02-24 14:52:00,
2013-02-24 14:57:00,42.7,33.2,30.41,WNW,303,0.0,0.3,69,0.00,BKN,,0.00,63.0,WeatherDisplay:10.37,2013-02-24 14:57:00,
2013-02-24 15:02:00,42.8,34.0,30.41,WNW,303,0.0,0.0,71,0.00,BKN,,0.00,54.0,WeatherDisplay:10.37,2013-02-24 15:02:00,
2013-02-24 15:07:00,42.8,34.0,30.40,WNW,303,0.0,0.0,71,0.00,BKN,,0.00,58.0,WeatherDisplay:10.37,2013-02-24 15:07:00,
2013-02-24 15:12:00,42.8,33.7,30.40,NW,304,0.0,0.0,70,0.00,BKN,,0.00,67.0,WeatherDisplay:10.37,2013-02-24 15:12:00,
2013-02-24 15:17:00,42.7,33.9,30.40,NW,304,0.0,0.0,71,0.00,BKN,,0.00,67.0,WeatherDisplay:10.37,2013-02-24 15:17:00,
2013-02-24 15:22:00,42.6,33.5,30.40,WNW,302,0.0,0.0,70,0.00,BKN,,0.00,62.0,WeatherDisplay:10.37,2013-02-24 15:22:00,
2013-02-24 15:27:00,42.5,33.8,30.40,WNW,302,0.0,0.0,71,0.00,BKN,,0.00,49.0,WeatherDisplay:10.37,2013-02-24 15:27:00,
2013-02-24 15:32:00,42.5,33.8,30.40,WNW,303,1.0,1.0,71,0.00,BKN,,0.00,46.0,WeatherDisplay:10.37,2013-02-24 15:32:00,
2013-02-24 15:37:00,42.4,33.7,30.40,WNW,302,0.0,0.0,71,0.00,BKN,,0.00,40.0,WeatherDisplay:10.37,2013-02-24 15:37:00,
2013-02-24 15:42:00,42.4,34.0,30.40,WNW,303,0.0,0.0,72,0.00,BKN,,0.00,40.0,WeatherDisplay:10.37,2013-02-24 15:42:00,
2013-02-24 15:47:00,42.3,33.9,30.40,WNW,300,2.3,2.3,72,0.00,BKN,,0.00,33.0,WeatherDisplay:10.37,2013-02-24 15:47:00,
2013-02-24 15:52:00,42.2,33.8,30.40,WNW,299,0.0,0.0,72,0.00,BKN,,0.00,28.0,WeatherDisplay:10.37,2013-02-24 15:52:00,
2013-02-24 15:57:00,42.1,33.7,30.40,WNW,300,0.0,0.0,72,0.00,BKN,,0.00,25.0,WeatherDisplay:10.37,2013-02-24 15:57:00,
2013-02-24 16:02:00,42.0,33.6,30.40,WNW,299,0.0,0.0,72,0.00,BKN,,0.00,30.0,WeatherDisplay:10.37,2013-02-24 16:02:00,
2013-02-24 16:07:00,42.0,34.0,30.40,WNW,300,0.0,0.0,73,0.00,BKN,,0.00,33.0,WeatherDisplay:10.37,2013-02-24 16:07:00,
2013-02-24 16:12:00,41.8,33.8,30.41,WNW,299,0.0,0.0,73,0.00,BKN,,0.00,26.0,WeatherDisplay:10.37,2013-02-24 16:12:00,
2013-02-24 16:17:00,41.7,33.7,30.40,WNW,299,0.0,0.0,73,0.00,BKN,,0.00,23.0,WeatherDisplay:10.37,2013-02-24 16:17:00,
2013-02-24 16:22:00,41.7,33.7,30.40,WNW,299,0.0,0.0,73,0.00,BKN,,0.00,12.0,WeatherDisplay:10.37,2013-02-24 16:22:00,
2013-02-24 16:27:00,41.6,33.9,30.41,WNW,299,0.0,0.0,74,0.00,BKN,,0.00,14.0,WeatherDisplay:10.37,2013-02-24 16:27:00,
2013-02-24 16:32:00,41.5,34.2,30.40,SE,127,4.6,4.6,75,0.00,BKN,,0.00,9.0,WeatherDisplay:10.37,2013-02-24 16:32:00,
2013-02-24 16:37:00,41.3,34.3,30.40,SE,126,11.5,11.5,76,0.00,OVC,,0.00,11.0,WeatherDisplay:10.37,2013-02-24 16:37:00,
2013-02-24 16:42:00,41.1,34.8,30.40,ESE,114,2.3,2.3,78,0.00,BKN,,0.00,14.0,WeatherDisplay:10.37,2013-02-24 16:42:00,
2013-02-24 16:47:00,40.9,34.9,30.41,ESE,114,3.5,3.5,79,0.00,BKN,,0.00,19.0,WeatherDisplay:10.37,2013-02-24 16:47:00,
2013-02-24 16:52:00,40.7,34.7,30.41,ESE,113,0.0,0.2,79,0.00,BKN,,0.00,18.0,WeatherDisplay:10.37,2013-02-24 16:52:00,
2013-02-24 16:57:00,40.6,34.9,30.41,ESE,114,0.0,0.0,80,0.00,BKN,,0.00,12.0,WeatherDisplay:10.37,2013-02-24 16:57:00,
2013-02-24 17:02:00,40.4,34.7,30.41,ESE,113,0.0,0.0,80,0.00,BKN,,0.00,11.0,WeatherDisplay:10.37,2013-02-24 17:02:00,
2013-02-24 17:08:00,40.3,34.6,30.41,ESE,114,0.0,0.0,80,0.00,BKN,,0.00,12.0,WeatherDisplay:10.37,2013-02-24 17:08:00,
2013-02-24 17:13:00,40.1,34.7,30.42,ESE,113,0.0,0.0,81,0.00,BKN,,0.00,7.0,WeatherDisplay:10.37,2013-02-24 17:13:00,
2013-02-24 17:18:00,40.0,34.6,30.42,ESE,113,1.0,1.0,81,0.00,BKN,,0.00,5.0,WeatherDisplay:10.37,2013-02-24 17:18:00,
2013-02-24 17:23:00,39.8,34.4,30.42,ESE,113,0.0,0.0,81,0.00,OVC,,0.00,0.0,WeatherDisplay:10.37,2013-02-24 17:23:00,
2013-02-24 17:28:00,39.7,34.3,30.42,East,94,6.0,6.0,81,0.00,OVC,,0.00,0.0,WeatherDisplay:10.37,2013-02-24 17:28:00,
2013-02-24 17:33:00,39.6,34.6,30.42,East,97,13.0,13.0,82,0.00,OVC,,0.00,0.0,WeatherDisplay:10.37,2013-02-24 17:33:00,
2013-02-24 17:38:00,39.3,34.6,30.42,ESE,110,15.0,15.0,83,0.01,RA,,0.01,0.0,WeatherDisplay:10.37,2013-02-24 17:38:00,
2013-02-24 17:43:00,39.0,34.3,30.42,ESE,117,3.5,3.5,83,0.01,RA,,0.01,0.0,WeatherDisplay:10.37,2013-02-24 17:43:00,
2013-02-24 17:48:00,38.7,34.3,30.43,ESE,117,3.5,3.5,84,0.01,,,0.01,0.0,WeatherDisplay:10.37,2013-02-24 17:48:00,
2013-02-24 17:53:00,38.5,34.4,30.43,ESE,113,3.5,3.5,85,0.01,CLR,,0.01,0.0,WeatherDisplay:10.37,2013-02-24 17:53:00,
2013-02-24 17:58:00,38.4,34.3,30.43,ESE,110,3.5,3.5,85,0.01,OVC,,0.01,0.0,WeatherDisplay:10.37,2013-02-24 17:58:00,
2013-02-24 18:03:00,38.3,34.5,30.43,ESE,109,3.5,3.5,86,0.01,CLR,,0.01,0.0,WeatherDisplay:10.37,2013-02-24 18:03:00,
2013-02-24 18:08:00,38.2,34.4,30.44,ESE,109,0.0,0.0,86,0.01,CLR,,0.01,0.0,WeatherDisplay:10.37,2013-02-24 18:08:00,
2013-02-24 18:13:00,38.1,34.3,30.44,ESE,109,2.3,2.3,86,0.01,CLR,,0.01,0.0,WeatherDisplay:10.37,2013-02-24 18:13:00,
2013-02-24 18:18:00,38.0,34.2,30.44,ESE,110,3.5,3.5,86,0.01,CLR,,0.01,0.0,WeatherDisplay:10.37,2013-02-24 18:18:00,
2013-02-24 18:23:00,37.9,34.4,30.44,ESE,109,1.1,1.1,87,0.01,CLR,,0.01,0.0,WeatherDisplay:10.37,2013-02-24 18:23:00,
2013-02-24 18:28:00,37.8,34.3,30.44,ESE,109,0.0,0.0,87,0.01,CLR,,0.01,0.0,WeatherDisplay:10.37,2013-02-24 18:28:00,
2013-02-24 18:33:00,37.8,34.3,30.44,ESE,109,0.0,0.0,87,0.01,CLR,,0.01,0.0,WeatherDisplay:10.37,2013-02-24 18:33:00,
2013-02-24 18:38:00,37.7,34.2,30.44,ESE,109,0.0,0.0,87,0.00,CLR,,0.01,0.0,WeatherDisplay:10.37,2013-02-24 18:38:00,
2013-02-24 18:43:00,37.6,34.1,30.45,ESE,109,2.3,2.3,87,0.00,CLR,,0.01,0.0,WeatherDisplay:10.37,2013-02-24 18:43:00,
2013-02-24 18:48:00,37.6,34.1,30.44,ESE,110,0.0,0.0,87,0.00,CLR,,0.01,0.0,WeatherDisplay:10.37,2013-02-24 18:48:00,
2013-02-24 18:53:00,37.5,34.3,30.44,ESE,110,0.0,0.0,88,0.00,CLR,,0.01,0.0,WeatherDisplay:10.37,2013-02-24 18:53:00,
2013-02-24 18:58:00,37.5,34.0,30.44,ESE,109,0.0,0.0,87,0.00,CLR,,0.01,0.0,WeatherDisplay:10.37,2013-02-24 18:58:00,
2013-02-24 19:03:00,37.4,33.9,30.45,ESE,109,0.0,0.0,87,0.00,CLR,,0.01,0.0,WeatherDisplay:10.37,2013-02-24 19:03:00,
2013-02-24 19:08:00,37.3,33.8,30.45,ESE,110,0.0,0.0,87,0.00,CLR,,0.01,0.0,WeatherDisplay:10.37,2013-02-24 19:08:00,
2013-02-24 19:13:00,37.2,33.7,30.44,ESE,109,0.0,0.0,87,0.00,CLR,,0.01,0.0,WeatherDisplay:10.37,2013-02-24 19:13:00,
2013-02-24 19:18:00,37.2,33.7,30.44,ESE,109,0.0,0.0,87,0.00,CLR,,0.01,0.0,WeatherDisplay:10.37,2013-02-24 19:18:00,
2013-02-24 19:23:00,37.1,33.9,30.45,ESE,109,0.0,0.0,88,0.00,CLR,,0.01,0.0,WeatherDisplay:10.37,2013-02-24 19:23:00,
2013-02-24 19:28:00,37.1,33.9,30.45,ESE,109,0.0,0.0,88,0.00,CLR,,0.01,0.0,WeatherDisplay:10.37,2013-02-24 19:28:00,
2013-02-24 19:33:00,37.0,33.8,30.45,ESE,109,0.0,0.0,88,0.00,CLR,,0.01,0.0,WeatherDisplay:10.37,2013-02-24 19:33:00,
2013-02-24 19:38:00,37.0,33.8,30.45,ESE,109,0.0,0.0,88,0.00,CLR,,0.01,0.0,WeatherDisplay:10.37,2013-02-24 19:38:00,
2013-02-24 19:43:00,36.9,33.7,30.45,ESE,110,0.0,0.0,88,0.00,CLR,,0.01,0.0,WeatherDisplay:10.37,2013-02-24 19:43:00,
2013-02-24 19:48:00,36.9,33.7,30.45,ESE,109,0.0,0.0,88,0.00,CLR,,0.01,0.0,WeatherDisplay:10.37,2013-02-24 19:48:00,
2013-02-24 19:53:00,36.9,33.7,30.45,ESE,109,0.0,0.0,88,0.00,CLR,,0.01,0.0,WeatherDisplay:10.37,2013-02-24 19:53:00,
2013-02-24 19:58:00,36.9,33.7,30.45,ESE,109,0.0,0.0,88,0.00,CLR,,0.01,0.0,WeatherDisplay:10.37,2013-02-24 19:58:00,
2013-02-24 20:03:00,36.8,33.6,30.45,ESE,109,0.0,0.0,88,0.00,CLR,,0.01,0.0,WeatherDisplay:10.37,2013-02-24 20:03:00,
2013-02-24 20:08:00,36.8,33.9,30.45,ESE,109,0.0,0.0,89,0.00,CLR,,0.01,0.0,WeatherDisplay:10.37,2013-02-24 20:08:00,
2013-02-24 20:13:00,36.8,33.9,30.46,NE,34,3.5,3.5,89,0.00,CLR,,0.01,0.0,WeatherDisplay:10.37,2013-02-24 20:13:00,
2013-02-24 20:18:00,36.9,34.0,30.46,NE,35,2.3,2.3,89,0.00,CLR,,0.01,0.0,WeatherDisplay:10.37,2013-02-24 20:18:00,
2013-02-24 20:23:00,36.9,34.0,30.46,ESE,114,7.0,7.0,89,0.00,CLR,,0.01,0.0,WeatherDisplay:10.37,2013-02-24 20:23:00,
2013-02-24 20:28:00,37.0,34.1,30.46,ESE,105,10.4,10.4,89,0.00,CLR,,0.01,0.0,WeatherDisplay:10.37,2013-02-24 20:28:00,
2013-02-24 20:33:00,36.9,33.7,30.46,ESE,119,9.2,9.2,88,0.00,CLR,,0.01,0.0,WeatherDisplay:10.37,2013-02-24 20:33:00,
2013-02-24 20:38:00,36.9,33.7,30.47,East,101,6.9,6.9,88,0.00,CLR,,0.01,0.0,WeatherDisplay:10.37,2013-02-24 20:38:00,
2013-02-24 20:43:00,36.7,33.5,30.47,ESE,117,6.9,6.9,88,0.00,CLR,,0.01,0.0,WeatherDisplay:10.37,2013-02-24 20:43:00,
2013-02-24 20:48:00,36.7,33.5,30.47,ESE,106,5.8,5.8,88,0.00,CLR,,0.01,0.0,WeatherDisplay:10.37,2013-02-24 20:48:00,
2013-02-24 20:53:00,36.7,33.5,30.47,ESE,119,3.5,3.5,88,0.00,CLR,,0.01,0.0,WeatherDisplay:10.37,2013-02-24 20:53:00,
2013-02-24 20:58:00,36.6,33.4,30.46,ESE,107,3.5,3.5,88,0.00,CLR,,0.01,0.0,WeatherDisplay:10.37,2013-02-24 20:58:00,
2013-02-24 21:03:00,36.6,33.4,30.46,ESE,107,4.6,4.6,88,0.00,CLR,,0.01,0.0,WeatherDisplay:10.37,2013-02-24 21:03:00,
2013-02-24 21:08:00,36.6,33.4,30.46,ESE,115,4.6,4.6,88,0.00,CLR,,0.01,0.0,WeatherDisplay:10.37,2013-02-24 21:08:00,
2013-02-24 21:13:00,36.5,33.3,30.46,ESE,118,4.6,4.6,88,0.00,CLR,,0.01,0.0,WeatherDisplay:10.37,2013-02-24 21:13:00,
2013-02-24 21:18:00,36.5,33.3,30.46,ESE,114,4.6,4.6,88,0.00,CLR,,0.01,0.0,WeatherDisplay:10.37,2013-02-24 21:18:00,
2013-02-24 21:23:00,36.5,33.6,30.46,ESE,117,4.0,4.0,89,0.00,CLR,,0.01,0.0,WeatherDisplay:10.37,2013-02-24 21:23:00,
2013-02-24 21:28:00,36.5,33.3,30.46,ESE,117,0.0,0.0,88,0.00,CLR,,0.01,0.0,WeatherDisplay:10.37,2013-02-24 21:28:00,
2013-02-24 21:33:00,36.5,33.6,30.46,ESE,117,3.5,3.5,89,0.00,CLR,,0.01,0.0,WeatherDisplay:10.37,2013-02-24 21:33:00,
2013-02-24 21:38:00,36.5,33.6,30.46,ESE,117,0.0,0.0,89,0.00,CLR,,0.01,0.0,WeatherDisplay:10.37,2013-02-24 21:38:00,
2013-02-24 21:43:00,36.5,33.6,30.46,ESE,107,3.5,3.5,89,0.00,CLR,,0.01,0.0,WeatherDisplay:10.37,2013-02-24 21:43:00,
2013-02-24 21:48:00,36.6,33.7,30.47,East,96,3.0,3.0,89,0.00,CLR,,0.01,0.0,WeatherDisplay:10.37,2013-02-24 21:48:00,
2013-02-24 21:53:00,36.7,33.8,30.46,ESE,114,6.9,6.9,89,0.00,CLR,,0.01,0.0,WeatherDisplay:10.37,2013-02-24 21:53:00,
2013-02-24 21:58:00,36.8,33.9,30.47,ESE,113,3.5,3.5,89,0.00,CLR,,0.01,0.0,WeatherDisplay:10.37,2013-02-24 21:58:00,
2013-02-24 22:03:00,36.8,33.9,30.47,ESE,112,0.0,0.0,89,0.00,CLR,,0.01,0.0,WeatherDisplay:10.37,2013-02-24 22:03:00,
2013-02-24 22:08:00,36.8,33.9,30.47,ESE,102,3.5,3.5,89,0.00,CLR,,0.01,0.0,WeatherDisplay:10.37,2013-02-24 22:08:00,
2013-02-24 22:14:00,36.8,33.9,30.47,ESE,103,5.0,5.0,89,0.00,CLR,,0.01,0.0,WeatherDisplay:10.37,2013-02-24 22:14:00,
2013-02-24 22:19:00,36.7,33.8,30.47,ESE,104,1.1,0.0,89,0.00,CLR,,0.01,0.0,WeatherDisplay:10.37,2013-02-24 22:19:00,
2013-02-24 22:24:00,36.7,33.8,30.47,ESE,106,3.0,3.0,89,0.00,CLR,,0.01,0.0,WeatherDisplay:10.37,2013-02-24 22:24:00,
2013-02-24 22:29:00,36.6,33.7,30.47,ESE,106,1.1,1.1,89,0.00,CLR,,0.01,0.0,WeatherDisplay:10.37,2013-02-24 22:29:00,
2013-02-24 22:34:00,36.6,33.4,30.47,ESE,107,2.3,2.3,88,0.00,CLR,,0.01,0.0,WeatherDisplay:10.37,2013-02-24 22:34:00,
2013-02-24 22:39:00,36.5,33.3,30.47,East,101,2.3,2.3,88,0.00,CLR,,0.01,0.0,WeatherDisplay:10.37,2013-02-24 22:39:00,
2013-02-24 22:44:00,36.4,33.2,30.47,ESE,103,1.1,1.1,88,0.00,CLR,,0.01,0.0,WeatherDisplay:10.37,2013-02-24 22:44:00,
2013-02-24 22:49:00,36.3,33.1,30.47,ESE,103,1.1,1.1,88,0.00,CLR,,0.01,0.0,WeatherDisplay:10.37,2013-02-24 22:49:00,
2013-02-24 22:54:00,36.2,33.0,30.47,ESE,104,0.0,0.0,88,0.00,CLR,,0.01,0.0,WeatherDisplay:10.37,2013-02-24 22:54:00,
2013-02-24 22:59:00,36.0,32.5,30.47,ESE,104,0.0,0.0,87,0.00,CLR,,0.01,0.0,WeatherDisplay:10.37,2013-02-24 22:59:00,
2013-02-24 23:04:00,35.8,32.3,30.47,ESE,103,0.0,0.0,87,0.00,CLR,,0.01,0.0,WeatherDisplay:10.37,2013-02-24 23:04:00,
2013-02-24 23:09:00,35.7,32.2,30.47,ESE,103,0.0,0.0,87,0.00,CLR,,0.01,0.0,WeatherDisplay:10.37,2013-02-24 23:09:00,
2013-02-24 23:14:00,35.5,32.0,30.47,ESE,104,0.0,0.0,87,0.00,CLR,,0.01,0.0,WeatherDisplay:10.37,2013-02-24 23:14:00,
2013-02-24 23:19:00,35.2,31.7,30.47,ESE,102,0.0,0.0,87,0.00,CLR,,0.01,0.0,WeatherDisplay:10.37,2013-02-24 23:19:00,
2013-02-24 23:24:00,35.0,31.5,30.47,ESE,102,0.0,0.0,87,0.00,CLR,,0.01,0.0,WeatherDisplay:10.37,2013-02-24 23:24:00,
2013-02-24 23:29:00,34.8,31.3,30.48,ESE,104,0.0,0.0,87,0.00,CLR,,0.01,0.0,WeatherDisplay:10.37,2013-02-24 23:29:00,
2013-02-24 23:34:00,34.6,31.1,30.48,ESE,104,0.0,0.0,87,0.00,CLR,,0.01,0.0,WeatherDisplay:10.37,2013-02-24 23:34:00,
2013-02-24 23:39:00,34.4,30.9,30.48,ESE,104,0.0,0.0,87,0.00,CLR,,0.01,0.0,WeatherDisplay:10.37,2013-02-24 23:39:00,
2013-02-24 23:44:00,34.3,30.8,30.48,ESE,103,0.0,0.0,87,0.00,CLR,,0.01,0.0,WeatherDisplay:10.37,2013-02-24 23:44:00,
2013-02-24 23:49:00,34.1,30.6,30.48,ESE,103,0.0,0.0,87,0.00,CLR,,0.01,0.0,WeatherDisplay:10.37,2013-02-24 23:49:00,
2013-02-24 23:54:00,33.9,30.4,30.48,ESE,105,0.0,0.0,87,0.00,CLR,,0.01,0.0,WeatherDisplay:10.37,2013-02-24 23:54:00,
2013-02-24 23:59:00,33.7,30.5,30.48,ESE,103,0.0,0.0,88,0.00,CLR,,0.01,0.0,WeatherDisplay:10.37,2013-02-24 23:59:00,